sensor_id;sensor_type;location;lat;lon;timestamp;pressure;altitude;pressure_sealevel;temperature;humidity
71194;BME280;58903;47.210;8.618;2022-08-18T00:02:24;94045.88;;;29.46;37.64
71194;BME280;58903;47.210;8.618;2022-08-18T00:04:52;94038.31;;;29.46;37.51
71194;BME280;58903;47.210;8.618;2022-08-18T00:07:29;94035.34;;;29.44;37.73
71194;BME280;58903;47.210;8.618;2022-08-18T00:09:55;94029.81;;;29.44;38.05
71194;BME280;58903;47.210;8.618;2022-08-18T00:12:41;94025.75;;;29.45;37.59
71194;BME280;58903;47.210;8.618;2022-08-18T00:15:13;94015.75;;;29.42;38.13
71194;BME280;58903;47.210;8.618;2022-08-18T00:17:47;94022.03;;;29.43;37.65
71194;BME280;58903;47.210;8.618;2022-08-18T00:20:18;94032.59;;;29.44;37.81
71194;BME280;58903;47.210;8.618;2022-08-18T00:22:44;94029.06;;;29.44;37.89
71194;BME280;58903;47.210;8.618;2022-08-18T00:25:15;94027.56;;;29.43;38.22
71194;BME280;58903;47.210;8.618;2022-08-18T00:27:42;94022.03;;;29.43;38.23
71194;BME280;58903;47.210;8.618;2022-08-18T00:30:15;94013.00;;;29.42;37.83
71194;BME280;58903;47.210;8.618;2022-08-18T00:32:46;93997.66;;;29.41;38.01
71194;BME280;58903;47.210;8.618;2022-08-18T00:37:47;93998.41;;;29.42;37.45
71194;BME280;58903;47.210;8.618;2022-08-18T00:40:19;93989.13;;;29.39;37.63
71194;BME280;58903;47.210;8.618;2022-08-18T00:42:51;93986.38;;;29.39;37.96
71194;BME280;58903;47.210;8.618;2022-08-18T00:45:37;93982.84;;;29.39;37.64
71194;BME280;58903;47.210;8.618;2022-08-18T00:48:16;93986.19;;;29.37;38.30
71194;BME280;58903;47.210;8.618;2022-08-18T00:56:18;93975.66;;;29.36;37.77
71194;BME280;58903;47.210;8.618;2022-08-18T00:59:10;93979.88;;;29.37;37.93
71194;BME280;58903;47.210;8.618;2022-08-18T01:01:50;93977.13;;;29.37;38.23
71194;BME280;58903;47.210;8.618;2022-08-18T01:04:57;93978.41;;;29.36;38.05
71194;BME280;58903;47.210;8.618;2022-08-18T01:07:32;93969.34;;;29.35;37.66
71194;BME280;58903;47.210;8.618;2022-08-18T01:10:00;93967.13;;;29.34;38.25
71194;BME280;58903;47.210;8.618;2022-08-18T01:12:36;93967.13;;;29.34;37.66
71194;BME280;58903;47.210;8.618;2022-08-18T01:15:05;93968.41;;;29.33;38.36
71194;BME280;58903;47.210;8.618;2022-08-18T01:17:47;93973.97;;;29.33;37.61
71194;BME280;58903;47.210;8.618;2022-08-18T01:20:44;93971.75;;;29.31;37.80
71194;BME280;58903;47.210;8.618;2022-08-18T01:23:44;93971.00;;;29.31;38.27
71194;BME280;58903;47.210;8.618;2022-08-18T01:26:13;93971.00;;;29.31;38.60
71194;BME280;58903;47.210;8.618;2022-08-18T01:28:44;93960.47;;;29.29;38.46
71194;BME280;58903;47.210;8.618;2022-08-18T01:31:39;93959.91;;;29.31;38.73
71194;BME280;58903;47.210;8.618;2022-08-18T01:34:08;93958.41;;;29.30;38.56
71194;BME280;58903;47.210;8.618;2022-08-18T01:36:37;93959.72;;;29.29;38.01
71194;BME280;58903;47.210;8.618;2022-08-18T01:39:10;93951.41;;;29.29;38.23
71194;BME280;58903;47.210;8.618;2022-08-18T01:41:38;93950.66;;;29.28;38.19
71194;BME280;58903;47.210;8.618;2022-08-18T01:44:04;93937.38;;;29.27;38.05
71194;BME280;58903;47.210;8.618;2022-08-18T01:46:34;93938.13;;;29.27;37.77
71194;BME280;58903;47.210;8.618;2022-08-18T01:49:01;93927.03;;;29.27;38.02
71194;BME280;58903;47.210;8.618;2022-08-18T01:51:31;93923.50;;;29.27;38.58
71194;BME280;58903;47.210;8.618;2022-08-18T01:54:10;93910.94;;;29.26;38.44
71194;BME280;58903;47.210;8.618;2022-08-18T01:56:40;93905.41;;;29.26;38.70
71194;BME280;58903;47.210;8.618;2022-08-18T01:59:07;93919.25;;;29.26;38.12
71194;BME280;58903;47.210;8.618;2022-08-18T02:01:45;93910.22;;;29.25;37.78
71194;BME280;58903;47.210;8.618;2022-08-18T02:04:15;93898.38;;;29.25;38.22
71194;BME280;58903;47.210;8.618;2022-08-18T02:06:41;93902.44;;;29.24;37.88
71194;BME280;58903;47.210;8.618;2022-08-18T02:09:07;93907.22;;;29.23;37.89
71194;BME280;58903;47.210;8.618;2022-08-18T02:11:34;93906.69;;;29.25;38.21
71194;BME280;58903;47.210;8.618;2022-08-18T02:14:00;93903.19;;;29.24;38.60
71194;BME280;58903;47.210;8.618;2022-08-18T02:16:31;93907.44;;;29.25;38.59
71194;BME280;58903;47.210;8.618;2022-08-18T02:18:59;93899.66;;;29.24;37.93
71194;BME280;58903;47.210;8.618;2022-08-18T02:21:25;93899.66;;;29.24;38.17
71194;BME280;58903;47.210;8.618;2022-08-18T02:23:51;93889.88;;;29.23;38.48
71194;BME280;58903;47.210;8.618;2022-08-18T02:26:18;93896.69;;;29.22;38.18
71194;BME280;58903;47.210;8.618;2022-08-18T02:28:44;93898.72;;;29.21;38.33
71194;BME280;58903;47.210;8.618;2022-08-18T02:31:25;93893.75;;;29.20;37.87
71194;BME280;58903;47.210;8.618;2022-08-18T02:33:52;93889.69;;;29.21;38.19
71194;BME280;58903;47.210;8.618;2022-08-18T02:36:31;93881.19;;;29.19;38.07
71194;BME280;58903;47.210;8.618;2022-08-18T02:38:59;93878.44;;;29.19;37.75
71194;BME280;58903;47.210;8.618;2022-08-18T02:41:27;93883.97;;;29.19;37.90
71194;BME280;58903;47.210;8.618;2022-08-18T02:43:59;93888.75;;;29.18;38.65
71194;BME280;58903;47.210;8.618;2022-08-18T02:46:37;93891.84;;;29.15;38.35
71194;BME280;58903;47.210;8.618;2022-08-18T02:49:06;93883.78;;;29.17;38.56
71194;BME280;58903;47.210;8.618;2022-08-18T02:51:35;93876.19;;;29.17;38.37
71194;BME280;58903;47.210;8.618;2022-08-18T02:54:02;93877.47;;;29.16;38.60
71194;BME280;58903;47.210;8.618;2022-08-18T02:56:30;93883.78;;;29.17;38.70
71194;BME280;58903;47.210;8.618;2022-08-18T02:59:05;93888.56;;;29.16;38.64
71194;BME280;58903;47.210;8.618;2022-08-18T03:01:38;93891.84;;;29.15;38.34
71194;BME280;58903;47.210;8.618;2022-08-18T03:04:38;93898.13;;;29.15;38.41
71194;BME280;58903;47.210;8.618;2022-08-18T03:09:54;93893.13;;;29.14;38.50
71194;BME280;58903;47.210;8.618;2022-08-18T03:12:23;93890.16;;;29.12;38.36
71194;BME280;58903;47.210;8.618;2022-08-18T03:14:49;93882.94;;;29.08;38.35
71194;BME280;58903;47.210;8.618;2022-08-18T03:17:24;93876.66;;;29.08;38.24
71194;BME280;58903;47.210;8.618;2022-08-18T03:19:52;93876.66;;;29.08;38.37
71194;BME280;58903;47.210;8.618;2022-08-18T03:22:43;93882.41;;;29.10;38.24
71194;BME280;58903;47.210;8.618;2022-08-18T03:25:18;93875.94;;;29.07;37.93
71194;BME280;58903;47.210;8.618;2022-08-18T03:27:57;93865.94;;;29.04;38.33
71194;BME280;58903;47.210;8.618;2022-08-18T03:30:23;93867.44;;;29.05;38.36
71194;BME280;58903;47.210;8.618;2022-08-18T03:32:50;93870.41;;;29.07;38.50
71194;BME280;58903;47.210;8.618;2022-08-18T03:35:38;93871.88;;;29.08;38.08
71194;BME280;58903;47.210;8.618;2022-08-18T03:38:18;93871.13;;;29.08;38.35
71194;BME280;58903;47.210;8.618;2022-08-18T03:40:52;93870.59;;;29.09;38.67
71194;BME280;58903;47.210;8.618;2022-08-18T03:43:18;93892.00;;;29.09;38.69
71194;BME280;58903;47.210;8.618;2022-08-18T03:45:45;93887.72;;;29.08;38.43
71194;BME280;58903;47.210;8.618;2022-08-18T03:48:11;93898.81;;;29.08;38.11
71194;BME280;58903;47.210;8.618;2022-08-18T03:50:37;93896.59;;;29.06;38.68
71194;BME280;58903;47.210;8.618;2022-08-18T03:53:05;93896.59;;;29.06;37.94
71194;BME280;58903;47.210;8.618;2022-08-18T03:55:31;93904.16;;;29.06;38.43
71194;BME280;58903;47.210;8.618;2022-08-18T03:57:59;93905.47;;;29.05;38.29
71194;BME280;58903;47.210;8.618;2022-08-18T04:00:31;93904.72;;;29.04;38.79
71194;BME280;58903;47.210;8.618;2022-08-18T04:03:01;93896.97;;;29.03;38.34
71194;BME280;58903;47.210;8.618;2022-08-18T04:05:29;93898.97;;;29.02;38.12
71194;BME280;58903;47.210;8.618;2022-08-18T04:07:57;93883.63;;;29.01;38.63
71194;BME280;58903;47.210;8.618;2022-08-18T04:10:24;93874.06;;;29.02;38.03
71194;BME280;58903;47.210;8.618;2022-08-18T04:12:50;93853.19;;;29.01;38.23
71194;BME280;58903;47.210;8.618;2022-08-18T04:15:16;93829.75;;;29.02;38.61
71194;BME280;58903;47.210;8.618;2022-08-18T04:17:57;93788.97;;;29.03;38.59
71194;BME280;58903;47.210;8.618;2022-08-18T04:20:24;93742.44;;;29.01;38.07
71194;BME280;58903;47.210;8.618;2022-08-18T04:22:50;93718.81;;;29.00;37.99
71194;BME280;58903;47.210;8.618;2022-08-18T04:25:25;93732.66;;;29.00;38.54
71194;BME280;58903;47.210;8.618;2022-08-18T04:27:54;93756.28;;;29.01;38.66
71194;BME280;58903;47.210;8.618;2022-08-18T04:30:28;93761.09;;;29.01;38.35
71194;BME280;58903;47.210;8.618;2022-08-18T04:33:25;93767.91;;;29.00;38.38
71194;BME280;58903;47.210;8.618;2022-08-18T04:36:14;93758.84;;;28.99;38.30
71194;BME280;58903;47.210;8.618;2022-08-18T04:38:43;93768.84;;;29.02;37.90
71194;BME280;58903;47.210;8.618;2022-08-18T04:41:11;93759.25;;;29.03;38.00
71194;BME280;58903;47.210;8.618;2022-08-18T04:43:47;93770.34;;;29.03;38.24
71194;BME280;58903;47.210;8.618;2022-08-18T04:46:15;93797.63;;;28.99;37.85
71194;BME280;58903;47.210;8.618;2022-08-18T04:48:43;93826.78;;;29.00;37.82
71194;BME280;58903;47.210;8.618;2022-08-18T04:51:13;93855.22;;;29.01;38.67
71194;BME280;58903;47.210;8.618;2022-08-18T04:53:40;93864.81;;;29.00;38.13
71194;BME280;58903;47.210;8.618;2022-08-18T04:56:20;93850.41;;;29.01;37.89
71194;BME280;58903;47.210;8.618;2022-08-18T04:58:57;93832.34;;;29.00;38.11
71194;BME280;58903;47.210;8.618;2022-08-18T05:01:28;93837.88;;;29.00;37.84
71194;BME280;58903;47.210;8.618;2022-08-18T05:03:59;93838.44;;;28.99;37.93
71194;BME280;58903;47.210;8.618;2022-08-18T05:06:27;93837.69;;;28.98;38.24
71194;BME280;58903;47.210;8.618;2022-08-18T05:08:59;93840.44;;;28.98;37.90
71194;BME280;58903;47.210;8.618;2022-08-18T05:11:28;93850.78;;;28.98;37.97
71194;BME280;58903;47.210;8.618;2022-08-18T05:13:56;93861.28;;;28.99;38.73
71194;BME280;58903;47.210;8.618;2022-08-18T05:16:23;93854.84;;;28.97;38.25
71194;BME280;58903;47.210;8.618;2022-08-18T05:19:06;93880.28;;;28.95;38.78
71194;BME280;58903;47.210;8.618;2022-08-18T05:21:43;93881.41;;;28.92;38.59
71194;BME280;58903;47.210;8.618;2022-08-18T05:24:25;93871.78;;;28.93;38.43
71194;BME280;58903;47.210;8.618;2022-08-18T05:26:53;93876.38;;;28.91;38.69
71194;BME280;58903;47.210;8.618;2022-08-18T05:29:24;93877.69;;;28.90;38.98
71194;BME280;58903;47.210;8.618;2022-08-18T05:32:25;93885.63;;;28.93;41.27
71194;BME280;58903;47.210;8.618;2022-08-18T05:34:57;93885.63;;;28.93;39.24
71194;BME280;58903;47.210;8.618;2022-08-18T05:40:22;93900.97;;;28.94;39.07
71194;BME280;58903;47.210;8.618;2022-08-18T05:43:01;93891.38;;;28.95;39.17
71194;BME280;58903;47.210;8.618;2022-08-18T05:45:43;93885.81;;;28.95;39.13
71194;BME280;58903;47.210;8.618;2022-08-18T05:48:23;93897.09;;;28.97;38.75
71194;BME280;58903;47.210;8.618;2022-08-18T05:50:52;93912.25;;;28.96;38.85
71194;BME280;58903;47.210;8.618;2022-08-18T05:53:20;93921.69;;;29.01;39.28
71194;BME280;58903;47.210;8.618;2022-08-18T05:56:10;93936.25;;;29.01;38.66
71194;BME280;58903;47.210;8.618;2022-08-18T05:59:01;93944.56;;;29.01;38.94
71194;BME280;58903;47.210;8.618;2022-08-18T06:01:38;93938.28;;;29.01;38.82
71194;BME280;58903;47.210;8.618;2022-08-18T06:04:18;93937.75;;;29.02;39.16
71194;BME280;58903;47.210;8.618;2022-08-18T06:06:51;93936.66;;;29.05;38.89
71194;BME280;58903;47.210;8.618;2022-08-18T06:09:25;93930.19;;;29.03;38.64
71194;BME280;58903;47.210;8.618;2022-08-18T06:12:10;93906.72;;;29.04;39.11
71194;BME280;58903;47.210;8.618;2022-08-18T06:14:39;93919.84;;;29.03;39.11
71194;BME280;58903;47.210;8.618;2022-08-18T06:20:14;93933.47;;;29.01;39.51
71194;BME280;58903;47.210;8.618;2022-08-18T06:26:19;93957.13;;;29.02;40.07
71194;BME280;58903;47.210;8.618;2022-08-18T06:32:29;93949.75;;;29.05;39.93
71194;BME280;58903;47.210;8.618;2022-08-18T06:40:29;93954.34;;;29.02;39.65
71194;BME280;58903;47.210;8.618;2022-08-18T06:42:57;93957.47;;;28.99;39.80
71194;BME280;58903;47.210;8.618;2022-08-18T06:45:33;93954.16;;;29.00;39.64
71194;BME280;58903;47.210;8.618;2022-08-18T06:48:11;93963.75;;;28.99;40.26
71194;BME280;58903;47.210;8.618;2022-08-18T06:50:56;93971.13;;;28.97;39.97
71194;BME280;58903;47.210;8.618;2022-08-18T06:53:51;93984.44;;;28.98;40.10
71194;BME280;58903;47.210;8.618;2022-08-18T06:59:25;93959.63;;;28.93;39.99
71194;BME280;58903;47.210;8.618;2022-08-18T07:01:57;93957.41;;;28.91;39.81
71194;BME280;58903;47.210;8.618;2022-08-18T07:04:36;93967.22;;;28.92;39.22
71194;BME280;58903;47.210;8.618;2022-08-18T07:07:19;93969.56;;;28.88;39.54
71194;BME280;58903;47.210;8.618;2022-08-18T07:09:46;93969.78;;;28.90;39.83
71194;BME280;58903;47.210;8.618;2022-08-18T07:12:22;93967.75;;;28.91;39.73
71194;BME280;58903;47.210;8.618;2022-08-18T07:14:56;93954.66;;;28.91;39.71
71194;BME280;58903;47.210;8.618;2022-08-18T07:17:28;93954.84;;;28.93;40.10
71194;BME280;58903;47.210;8.618;2022-08-18T07:19:59;93965.16;;;28.93;39.93
71194;BME280;58903;47.210;8.618;2022-08-18T07:22:26;93967.03;;;28.90;39.35
71194;BME280;58903;47.210;8.618;2022-08-18T07:24:55;93980.31;;;28.92;39.77
71194;BME280;58903;47.210;8.618;2022-08-18T07:27:40;93981.78;;;28.93;39.78
71194;BME280;58903;47.210;8.618;2022-08-18T07:30:33;93979.75;;;28.93;39.45
71194;BME280;58903;47.210;8.618;2022-08-18T07:38:34;93981.78;;;28.93;39.72
71194;BME280;58903;47.210;8.618;2022-08-18T07:41:09;93981.06;;;28.92;39.46
71194;BME280;58903;47.210;8.618;2022-08-18T07:44:10;93976.25;;;28.93;39.66
71194;BME280;58903;47.210;8.618;2022-08-18T07:52:37;93948.56;;;28.93;39.08
71194;BME280;58903;47.210;8.618;2022-08-18T07:55:27;93945.28;;;28.94;39.64
71194;BME280;58903;47.210;8.618;2022-08-18T07:58:24;93949.31;;;28.93;39.56
71194;BME280;58903;47.210;8.618;2022-08-18T08:03:58;93934.19;;;28.94;39.07
71194;BME280;58903;47.210;8.618;2022-08-18T08:14:51;93921.63;;;28.93;39.89
71194;BME280;58903;47.210;8.618;2022-08-18T08:20:36;93924.41;;;28.93;39.26
71194;BME280;58903;47.210;8.618;2022-08-18T08:35:25;93960.38;;;28.93;39.47
71194;BME280;58903;47.210;8.618;2022-08-18T08:43:49;93956.34;;;28.94;39.14
71194;BME280;58903;47.210;8.618;2022-08-18T08:46:29;93955.78;;;28.96;39.28
71194;BME280;58903;47.210;8.618;2022-08-18T08:49:10;93948.75;;;28.95;39.24
71194;BME280;58903;47.210;8.618;2022-08-18T08:51:51;93948.22;;;28.96;39.30
71194;BME280;58903;47.210;8.618;2022-08-18T08:54:42;93935.84;;;28.97;39.65
71194;BME280;58903;47.210;8.618;2022-08-18T08:57:10;93915.75;;;28.97;39.21
71194;BME280;58903;47.210;8.618;2022-08-18T08:59:41;93923.50;;;28.98;39.26
71194;BME280;58903;47.210;8.618;2022-08-18T09:02:31;93925.16;;;29.01;39.62
71194;BME280;58903;47.210;8.618;2022-08-18T09:05:25;93934.78;;;29.00;39.05
71194;BME280;58903;47.210;8.618;2022-08-18T09:13:27;93924.66;;;29.03;39.46
71194;BME280;58903;47.210;8.618;2022-08-18T09:16:07;93922.41;;;29.01;39.46
71194;BME280;58903;47.210;8.618;2022-08-18T09:24:26;93925.41;;;29.03;38.70
71194;BME280;58903;47.210;8.618;2022-08-18T09:30:06;93911.56;;;29.03;39.03
71194;BME280;58903;47.210;8.618;2022-08-18T09:33:01;93904.72;;;29.04;38.78
71194;BME280;58903;47.210;8.618;2022-08-18T09:36:19;93904.72;;;29.04;39.60
71194;BME280;58903;47.210;8.618;2022-08-18T09:42:04;93888.47;;;29.08;39.46
71194;BME280;58903;47.210;8.618;2022-08-18T09:49:57;93893.28;;;29.08;39.00
71194;BME280;58903;47.210;8.618;2022-08-18T09:52:47;93892.56;;;29.07;39.43
71194;BME280;58903;47.210;8.618;2022-08-18T10:01:34;93856.75;;;29.09;38.54
71194;BME280;58903;47.210;8.618;2022-08-18T10:04:41;93860.03;;;29.08;39.54
71194;BME280;58903;47.210;8.618;2022-08-18T10:10:20;93846.94;;;29.08;39.06
71194;BME280;58903;47.210;8.618;2022-08-18T10:16:52;93845.66;;;29.09;39.34
71194;BME280;58903;47.210;8.618;2022-08-18T10:21:29;93865.81;;;29.10;38.64
71194;BME280;58903;47.210;8.618;2022-08-18T10:27:46;93861.19;;;29.13;39.20
71194;BME280;58903;47.210;8.618;2022-08-18T10:33:55;93859.34;;;29.15;38.34
71194;BME280;58903;47.210;8.618;2022-08-18T10:39:17;93836.88;;;29.19;39.07
71194;BME280;58903;47.210;8.618;2022-08-18T10:44:47;93826.34;;;29.17;38.75
71194;BME280;58903;47.210;8.618;2022-08-18T10:47:25;93816.00;;;29.18;38.87
71194;BME280;58903;47.210;8.618;2022-08-18T10:53:47;93810.66;;;29.20;39.09
71194;BME280;58903;47.210;8.618;2022-08-18T10:56:34;93813.41;;;29.20;39.34
71194;BME280;58903;47.210;8.618;2022-08-18T11:05:19;93818.22;;;29.19;38.77
71194;BME280;58903;47.210;8.618;2022-08-18T11:07:49;93824.50;;;29.20;38.89
71194;BME280;58903;47.210;8.618;2022-08-18T11:10:22;93814.91;;;29.21;39.26
71194;BME280;58903;47.210;8.618;2022-08-18T11:16:01;93802.53;;;29.22;39.00
71194;BME280;58903;47.210;8.618;2022-08-18T11:18:45;93800.50;;;29.22;39.38
71194;BME280;58903;47.210;8.618;2022-08-18T11:21:34;93796.25;;;29.21;39.15
71194;BME280;58903;47.210;8.618;2022-08-18T11:24:23;93788.50;;;29.20;38.70
71194;BME280;58903;47.210;8.618;2022-08-18T11:29:46;93806.03;;;29.22;39.09
71194;BME280;58903;47.210;8.618;2022-08-18T11:32:33;93808.81;;;29.22;38.78
71194;BME280;58903;47.210;8.618;2022-08-18T11:35:17;93807.31;;;29.21;39.22
71194;BME280;58903;47.210;8.618;2022-08-18T11:38:03;93821.34;;;29.23;39.31
71194;BME280;58903;47.210;8.618;2022-08-18T11:40:43;93818.81;;;29.25;38.29
71194;BME280;58903;47.210;8.618;2022-08-18T11:48:17;93821.03;;;29.27;38.80
71194;BME280;58903;47.210;8.618;2022-08-18T11:50:48;93823.59;;;29.25;38.33
71194;BME280;58903;47.210;8.618;2022-08-18T11:56:29;93819.53;;;29.26;38.88
71194;BME280;58903;47.210;8.618;2022-08-18T11:59:00;93823.59;;;29.25;38.78
71194;BME280;58903;47.210;8.618;2022-08-18T12:09:31;93820.47;;;29.28;38.75
71194;BME280;58903;47.210;8.618;2022-08-18T12:12:04;93814.38;;;29.30;38.81
71194;BME280;58903;47.210;8.618;2022-08-18T12:14:49;93812.91;;;29.29;38.80
71194;BME280;58903;47.210;8.618;2022-08-18T12:17:39;93802.00;;;29.31;38.18
71194;BME280;58903;47.210;8.618;2022-08-18T12:20:17;93800.72;;;29.32;38.80
71194;BME280;58903;47.210;8.618;2022-08-18T12:22:59;93795.19;;;29.32;38.27
71194;BME280;58903;47.210;8.618;2022-08-18T12:25:25;93793.69;;;29.31;38.86
71194;BME280;58903;47.210;8.618;2022-08-18T12:28:02;93794.97;;;29.30;38.29
71194;BME280;58903;47.210;8.618;2022-08-18T12:30:30;93796.28;;;29.29;38.36
71194;BME280;58903;47.210;8.618;2022-08-18T12:32:56;93794.25;;;29.29;38.64
71194;BME280;58903;47.210;8.618;2022-08-18T12:35:25;93791.50;;;29.29;38.68
71194;BME280;58903;47.210;8.618;2022-08-18T12:37:54;93792.75;;;29.28;38.44
71194;BME280;58903;47.210;8.618;2022-08-18T12:40:28;93783.91;;;29.30;38.68
71194;BME280;58903;47.210;8.618;2022-08-18T12:43:11;93777.81;;;29.31;38.12
71194;BME280;58903;47.210;8.618;2022-08-18T12:45:37;93777.06;;;29.31;38.63
71194;BME280;58903;47.210;8.618;2022-08-18T12:48:06;93784.66;;;29.30;38.43
71194;BME280;58903;47.210;8.618;2022-08-18T12:50:34;93788.16;;;29.31;38.41
71194;BME280;58903;47.210;8.618;2022-08-18T12:53:03;93788.34;;;29.33;38.61
71194;BME280;58903;47.210;8.618;2022-08-18T12:55:42;93782.63;;;29.31;38.94
71194;BME280;58903;47.210;8.618;2022-08-18T12:58:08;93787.41;;;29.30;38.17
71194;BME280;58903;47.210;8.618;2022-08-18T13:00:35;93795.19;;;29.32;38.87
71194;BME280;58903;47.210;8.618;2022-08-18T13:03:01;93795.19;;;29.32;38.14
71194;BME280;58903;47.210;8.618;2022-08-18T13:05:43;93788.91;;;29.31;38.88
71194;BME280;58903;47.210;8.618;2022-08-18T13:08:20;93787.41;;;29.30;38.73
71194;BME280;58903;47.210;8.618;2022-08-18T13:10:53;93792.22;;;29.30;38.86
71194;BME280;58903;47.210;8.618;2022-08-18T13:13:22;93785.38;;;29.31;38.08
71194;BME280;58903;47.210;8.618;2022-08-18T13:15:50;93790.38;;;29.32;38.80
71194;BME280;58903;47.210;8.618;2022-08-18T13:18:31;93791.69;;;29.31;38.10
71194;BME280;58903;47.210;8.618;2022-08-18T13:21:09;93794.44;;;29.31;38.72
71194;BME280;58903;47.210;8.618;2022-08-18T13:23:56;93793.69;;;29.31;38.19
71194;BME280;58903;47.210;8.618;2022-08-18T13:26:32;93796.28;;;29.29;38.61
71194;BME280;58903;47.210;8.618;2022-08-18T13:29:02;93795.72;;;29.30;38.55
71194;BME280;58903;47.210;8.618;2022-08-18T13:31:33;93797.75;;;29.30;38.30
71194;BME280;58903;47.210;8.618;2022-08-18T13:33:59;93801.81;;;29.29;38.83
71194;BME280;58903;47.210;8.618;2022-08-18T13:36:37;93808.81;;;29.30;38.64
71194;BME280;58903;47.210;8.618;2022-08-18T13:39:12;93804.03;;;29.30;38.43
71194;BME280;58903;47.210;8.618;2022-08-18T13:41:48;93809.56;;;29.30;38.06
71194;BME280;58903;47.210;8.618;2022-08-18T13:44:18;93809.56;;;29.30;38.53
71194;BME280;58903;47.210;8.618;2022-08-18T13:46:46;93812.34;;;29.30;38.72
71194;BME280;58903;47.210;8.618;2022-08-18T13:49:17;93822.69;;;29.30;37.92
71194;BME280;58903;47.210;8.618;2022-08-18T13:51:44;93818.63;;;29.31;38.20
71194;BME280;58903;47.210;8.618;2022-08-18T13:54:19;93818.06;;;29.32;38.57
71194;BME280;58903;47.210;8.618;2022-08-18T13:56:49;93817.34;;;29.32;38.65
71194;BME280;58903;47.210;8.618;2022-08-18T13:59:16;93813.84;;;29.31;38.21
71194;BME280;58903;47.210;8.618;2022-08-18T14:01:45;93817.88;;;29.30;37.88
71194;BME280;58903;47.210;8.618;2022-08-18T14:04:19;93821.41;;;29.31;38.44
71194;BME280;58903;47.210;8.618;2022-08-18T14:06:49;93820.84;;;29.32;38.38
71194;BME280;58903;47.210;8.618;2022-08-18T14:09:16;93815.31;;;29.32;37.90
71194;BME280;58903;47.210;8.618;2022-08-18T14:11:46;93815.31;;;29.32;38.33
71194;BME280;58903;47.210;8.618;2022-08-18T14:14:14;93825.84;;;29.34;37.93
71194;BME280;58903;47.210;8.618;2022-08-18T14:16:41;93818.06;;;29.32;38.39
71194;BME280;58903;47.210;8.618;2022-08-18T14:19:08;93818.06;;;29.32;38.07
71194;BME280;58903;47.210;8.618;2022-08-18T14:21:53;93828.06;;;29.35;38.23
71194;BME280;58903;47.210;8.618;2022-08-18T14:24:40;93835.06;;;29.36;38.15
71194;BME280;58903;47.210;8.618;2022-08-18T14:27:32;93835.81;;;29.37;38.30
71194;BME280;58903;47.210;8.618;2022-08-18T14:30:04;93833.59;;;29.35;38.53
71194;BME280;58903;47.210;8.618;2022-08-18T14:32:31;93836.94;;;29.34;37.89
71194;BME280;58903;47.210;8.618;2022-08-18T14:35:06;93839.91;;;29.36;38.49
71194;BME280;58903;47.210;8.618;2022-08-18T14:37:34;93850.97;;;29.36;38.31
71194;BME280;58903;47.210;8.618;2022-08-18T14:40:27;93841.72;;;29.33;38.10
71194;BME280;58903;47.210;8.618;2022-08-18T14:42:55;93850.59;;;29.32;38.35
71194;BME280;58903;47.210;8.618;2022-08-18T14:45:30;93845.06;;;29.32;38.51
71194;BME280;58903;47.210;8.618;2022-08-18T14:48:05;93849.09;;;29.31;38.58
71194;BME280;58903;47.210;8.618;2022-08-18T14:50:31;93854.09;;;29.32;39.31
71194;BME280;58903;47.210;8.618;2022-08-18T14:53:00;93853.38;;;29.32;38.52
71194;BME280;58903;47.210;8.618;2022-08-18T14:55:27;93861.13;;;29.33;38.62
71194;BME280;58903;47.210;8.618;2022-08-18T14:58:24;93863.34;;;29.35;38.94
71194;BME280;58903;47.210;8.618;2022-08-18T15:01:06;93864.63;;;29.34;38.42
71194;BME280;58903;47.210;8.618;2022-08-18T15:03:39;93858.34;;;29.33;38.81
71194;BME280;58903;47.210;8.618;2022-08-18T15:06:13;93871.66;;;29.35;38.62
71194;BME280;58903;47.210;8.618;2022-08-18T15:08:39;93866.84;;;29.35;39.21
71194;BME280;58903;47.210;8.618;2022-08-18T15:11:13;93865.34;;;29.34;38.45
71194;BME280;58903;47.210;8.618;2022-08-18T15:13:44;93866.09;;;29.35;38.64
71194;BME280;58903;47.210;8.618;2022-08-18T15:16:12;93866.09;;;29.35;38.68
71194;BME280;58903;47.210;8.618;2022-08-18T15:18:42;93869.44;;;29.33;38.67
71194;BME280;58903;47.210;8.618;2022-08-18T15:21:09;93874.78;;;29.31;38.45
71194;BME280;58903;47.210;8.618;2022-08-18T15:23:56;93881.97;;;29.27;38.54
71194;BME280;58903;47.210;8.618;2022-08-18T15:26:52;93888.97;;;29.28;38.51
71194;BME280;58903;47.210;8.618;2022-08-18T15:29:28;93879.38;;;29.29;38.74
71194;BME280;58903;47.210;8.618;2022-08-18T15:32:09;93885.47;;;29.27;39.27
71194;BME280;58903;47.210;8.618;2022-08-18T15:34:42;93883.78;;;29.24;39.41
71194;BME280;58903;47.210;8.618;2022-08-18T15:37:19;93888.25;;;29.27;39.46
71194;BME280;58903;47.210;8.618;2022-08-18T15:39:46;93896.75;;;29.29;39.12
71194;BME280;58903;47.210;8.618;2022-08-18T15:42:17;93899.34;;;29.27;38.49
71194;BME280;58903;47.210;8.618;2022-08-18T15:44:43;93894.50;;;29.28;39.45
71194;BME280;58903;47.210;8.618;2022-08-18T15:47:13;93900.03;;;29.28;38.67
71194;BME280;58903;47.210;8.618;2022-08-18T15:49:42;93900.78;;;29.28;38.98
71194;BME280;58903;47.210;8.618;2022-08-18T15:52:13;93897.28;;;29.28;38.81
71194;BME280;58903;47.210;8.618;2022-08-18T15:54:47;93896.00;;;29.29;39.10
71194;BME280;58903;47.210;8.618;2022-08-18T15:57:25;93900.03;;;29.28;39.86
71194;BME280;58903;47.210;8.618;2022-08-18T15:59:52;93903.00;;;29.30;39.74
71194;BME280;58903;47.210;8.618;2022-08-18T16:02:20;93903.00;;;29.30;40.22
71194;BME280;58903;47.210;8.618;2022-08-18T16:04:54;93906.31;;;29.21;41.31
71194;BME280;58903;47.210;8.618;2022-08-18T16:07:21;93901.50;;;29.21;41.53
71194;BME280;58903;47.210;8.618;2022-08-18T16:09:53;93908.16;;;29.26;41.31
71194;BME280;58903;47.210;8.618;2022-08-18T16:12:19;93900.59;;;29.26;41.56
71194;BME280;58903;47.210;8.618;2022-08-18T16:14:47;93905.78;;;29.30;41.28
71194;BME280;58903;47.210;8.618;2022-08-18T16:17:18;93903.22;;;29.32;40.46
71194;BME280;58903;47.210;8.618;2022-08-18T16:19:49;93900.25;;;29.30;40.44